Time;durP1;ratioP1;P1;durP2;ratioP2;P2;SDS_P1;SDS_P2;PMS_P1;PMS_P2;Temp;Humidity;BMP_temperature;BMP_pressure;BME280_temperature;BME280_humidity;BME280_pressure;Samples;Min_cycle;Max_cycle;Signal;HPM_P1;HPM_P2
2022/09/13 00:01:35;;;;;;;2.63;1.60;;;14.80;98.00;;;;;;5033753;28;20459;-68
2022/09/13 00:04:04;;;;;;;1.67;1.40;;;14.80;98.00;;;;;;5033474;28;20508;-68
2022/09/13 00:06:31;;;;;;;2.60;1.97;;;14.70;98.00;;;;;;5032485;28;20870;-69
2022/09/13 00:08:59;;;;;;;1.90;1.83;;;14.80;98.00;;;;;;5033696;28;20468;-68
2022/09/13 00:11:28;;;;;;;4.20;1.90;;;14.60;98.00;;;;;;5033597;28;20476;-69
2022/09/13 00:13:56;;;;;;;2.87;2.13;;;14.70;98.00;;;;;;5033604;28;20467;-68
2022/09/13 00:16:25;;;;;;;2.37;2.07;;;14.60;98.00;;;;;;5033380;28;20459;-69
2022/09/13 00:18:52;;;;;;;2.47;1.73;;;14.70;98.00;;;;;;5033387;28;20455;-70
2022/09/13 00:21:22;;;;;;;2.30;1.60;;;14.80;98.00;;;;;;5033368;28;20466;-69
2022/09/13 00:23:51;;;;;;;2.73;2.03;;;14.80;98.00;;;;;;5033507;28;20491;-68
2022/09/13 00:26:20;;;;;;;3.47;2.13;;;15.00;98.00;;;;;;5033263;28;20469;-68
2022/09/13 00:28:51;;;;;;;3.40;2.10;;;14.80;98.00;;;;;;5033385;28;20470;-68
2022/09/13 00:31:18;;;;;;;2.60;1.60;;;15.00;98.00;;;;;;5033214;28;20459;-68
2022/09/13 00:33:46;;;;;;;2.87;1.93;;;14.80;98.00;;;;;;5033035;28;20953;-68
2022/09/13 00:36:14;;;;;;;4.23;2.20;;;14.70;98.00;;;;;;5032997;28;20471;-69
2022/09/13 00:38:43;;;;;;;2.10;1.70;;;14.70;98.00;;;;;;5033078;28;20541;-69
2022/09/13 00:41:14;;;;;;;3.87;2.27;;;14.60;98.00;;;;;;5032721;28;20454;-69
2022/09/13 00:43:45;;;;;;;2.80;1.97;;;14.60;98.00;;;;;;5032571;28;20483;-70
2022/09/13 00:46:16;;;;;;;2.47;1.90;;;14.60;98.00;;;;;;5032804;28;20816;-69
2022/09/13 00:48:45;;;;;;;2.47;1.90;;;14.70;98.00;;;;;;5032735;28;20462;-68
2022/09/13 00:51:12;;;;;;;2.47;1.90;;;14.60;98.00;;;;;;5032700;28;20458;-69
2022/09/13 00:53:46;;;;;;;2.27;1.80;;;14.70;98.00;;;;;;5032839;28;20980;-69
2022/09/13 00:56:17;;;;;;;1.97;1.50;;;14.70;98.00;;;;;;5032434;28;20462;-69
2022/09/13 00:58:50;;;;;;;1.80;1.53;;;14.70;98.00;;;;;;5032479;28;20455;-68
2022/09/13 01:01:20;;;;;;;1.90;1.57;;;14.80;98.00;;;;;;5032472;28;20470;-70
2022/09/13 01:03:48;;;;;;;2.77;1.70;;;14.70;98.00;;;;;;5032272;28;20490;-69
2022/09/13 01:06:19;;;;;;;2.73;1.80;;;14.60;98.00;;;;;;5032175;28;20458;-68
2022/09/13 01:08:51;;;;;;;2.13;1.70;;;14.60;98.00;;;;;;5032567;28;20466;-68
2022/09/13 01:11:24;;;;;;;2.43;1.73;;;14.60;98.00;;;;;;5032470;28;20494;-68
2022/09/13 01:13:51;;;;;;;2.03;1.73;;;14.40;98.00;;;;;;5032418;28;20961;-69
2022/09/13 01:16:19;;;;;;;2.97;1.90;;;14.30;98.00;;;;;;5032558;28;20462;-68
2022/09/13 01:18:46;;;;;;;2.20;1.60;;;14.40;98.00;;;;;;5031995;28;20462;-68
2022/09/13 01:21:42;;;;;;;2.20;1.60;;;14.40;98.00;;;;;;5032155;28;20459;-69
2022/09/13 01:24:47;;;;;;;2.87;1.80;;;14.60;98.00;;;;;;5032361;28;20501;-69
2022/09/13 01:27:31;;;;;;;1.83;1.73;;;14.70;98.00;;;;;;4966957;28;20779;-70
2022/09/13 01:30:12;;;;;;;2.40;2.03;;;14.80;98.00;;;;;;5032390;28;20466;-67
2022/09/13 01:33:09;;;;;;;3.00;1.70;;;14.70;98.00;;;;;;5032342;28;20455;-69
2022/09/13 01:35:47;;;;;;;2.60;1.90;;;14.50;98.00;;;;;;5031425;28;20457;-68
2022/09/13 01:38:30;;;;;;;2.23;1.67;;;14.30;98.00;;;;;;5032059;28;20540;-68
2022/09/13 01:41:09;;;;;;;2.10;1.80;;;14.40;98.00;;;;;;5031833;28;20480;-68
2022/09/13 01:43:50;;;;;;;2.53;1.70;;;14.40;98.00;;;;;;5032006;28;20513;-68
2022/09/13 01:46:26;;;;;;;1.80;1.70;;;14.30;98.00;;;;;;5031787;28;20553;-70
2022/09/13 01:48:58;;;;;;;2.10;1.53;;;14.20;98.00;;;;;;5031773;28;20462;-70
2022/09/13 01:51:31;;;;;;;2.20;1.80;;;14.20;98.00;;;;;;5031674;28;20465;-69
2022/09/13 01:54:15;;;;;;;2.60;1.90;;;14.30;98.00;;;;;;5031863;28;20463;-68
2022/09/13 01:56:51;;;;;;;3.10;2.13;;;14.20;98.00;;;;;;5031902;28;20961;-69
2022/09/13 01:59:24;;;;;;;2.27;1.70;;;14.00;98.00;;;;;;5031694;28;20464;-69
2022/09/13 02:01:57;;;;;;;2.37;1.63;;;13.90;98.00;;;;;;5031603;28;20474;-69
2022/09/13 02:04:28;;;;;;;2.77;2.00;;;14.00;98.00;;;;;;5031707;28;20494;-68
2022/09/13 02:07:03;;;;;;;2.57;2.00;;;14.10;98.00;;;;;;5031829;28;20463;-69
2022/09/13 02:09:35;;;;;;;2.63;1.70;;;14.10;98.00;;;;;;5031620;28;21015;-69
2022/09/13 02:12:07;;;;;;;1.73;1.53;;;14.00;98.00;;;;;;5031700;28;20988;-70
2022/09/13 02:14:37;;;;;;;2.70;1.80;;;13.90;98.00;;;;;;5031569;28;20469;-69
2022/09/13 02:17:09;;;;;;;3.37;1.80;;;13.90;98.00;;;;;;5031640;28;21008;-69
2022/09/13 02:19:40;;;;;;;2.30;1.70;;;13.90;98.00;;;;;;5013969;28;20463;-70
2022/09/13 02:22:11;;;;;;;5.60;1.90;;;14.00;98.00;;;;;;5031857;28;20470;-68
2022/09/13 02:24:42;;;;;;;2.63;1.70;;;13.90;98.00;;;;;;5031914;28;20575;-68
2022/09/13 02:27:12;;;;;;;1.97;1.57;;;13.80;98.00;;;;;;5031631;28;20952;-69
2022/09/13 02:29:43;;;;;;;2.13;1.70;;;13.90;98.00;;;;;;5032244;28;20466;-69
2022/09/13 02:32:15;;;;;;;1.93;1.73;;;14.00;98.00;;;;;;5035527;28;20498;-68
2022/09/13 02:34:47;;;;;;;2.60;2.00;;;13.90;98.00;;;;;;5035658;28;20461;-70
2022/09/13 02:37:14;;;;;;;2.20;1.60;;;13.80;98.00;;;;;;5035464;28;20465;-68
2022/09/13 02:39:52;;;;;;;2.37;1.60;;;13.70;98.00;;;;;;5017675;28;20971;-68
2022/09/13 02:42:21;;;;;;;2.63;1.53;;;13.60;98.00;;;;;;5035083;28;20485;-70
2022/09/13 02:44:51;;;;;;;3.00;1.83;;;13.60;98.00;;;;;;5034985;28;20481;-69
2022/09/13 02:47:44;;;;;;;1.63;1.40;;;13.80;98.00;;;;;;5035060;28;20472;-68
2022/09/13 02:50:28;;;;;;;1.93;1.77;;;13.90;98.00;;;;;;5034876;28;20462;-70
2022/09/13 02:53:04;;;;;;;2.70;2.13;;;13.80;98.00;;;;;;5034989;28;20553;-69
2022/09/13 02:55:39;;;;;;;1.93;1.50;;;13.60;98.00;;;;;;5017627;28;20466;-69
2022/09/13 02:58:12;;;;;;;2.73;1.70;;;13.50;98.00;;;;;;5034867;28;20460;-69
2022/09/13 03:00:39;;;;;;;2.27;1.70;;;13.50;98.00;;;;;;5034723;28;20469;-68
2022/09/13 03:03:13;;;;;;;2.47;1.60;;;13.50;98.00;;;;;;5034696;28;20465;-68
2022/09/13 03:05:40;;;;;;;5.00;1.83;;;13.40;98.00;;;;;;5034653;28;20449;-69
2022/09/13 03:08:11;;;;;;;2.10;1.57;;;13.40;98.00;;;;;;5034699;28;20450;-68
2022/09/13 03:10:49;;;;;;;1.97;1.70;;;13.50;98.00;;;;;;5034898;28;20469;-69
2022/09/13 03:13:41;;;;;;;2.20;1.73;;;13.40;98.00;;;;;;5034894;28;20477;-69
2022/09/13 03:16:21;;;;;;;3.07;2.00;;;13.50;98.00;;;;;;5034523;28;20540;-69
2022/09/13 03:19:06;;;;;;;2.03;1.70;;;13.50;98.00;;;;;;5017213;28;20462;-69
2022/09/13 03:21:52;;;;;;;2.20;1.47;;;13.40;98.00;;;;;;5034658;28;20979;-68
2022/09/13 03:24:25;;;;;;;1.57;1.43;;;13.40;98.00;;;;;;5017041;28;20492;-69
2022/09/13 03:27:06;;;;;;;2.63;2.03;;;13.50;98.00;;;;;;5033974;28;20468;-68
2022/09/13 03:29:41;;;;;;;1.73;1.53;;;13.60;98.00;;;;;;5034763;28;20468;-68
2022/09/13 03:32:22;;;;;;;2.43;1.77;;;13.50;98.00;;;;;;5034789;28;20471;-68
2022/09/13 03:35:01;;;;;;;2.20;1.60;;;13.50;98.00;;;;;;5034030;28;20469;-68
2022/09/13 03:37:34;;;;;;;1.93;1.50;;;13.50;98.00;;;;;;5034278;28;20552;-68
2022/09/13 03:40:07;;;;;;;2.63;1.70;;;13.50;98.00;;;;;;5034312;28;20457;-70
2022/09/13 03:42:42;;;;;;;2.00;1.53;;;13.60;98.00;;;;;;5033910;28;20467;-68
2022/09/13 03:45:11;;;;;;;2.90;1.53;;;13.60;98.00;;;;;;5014854;28;21024;-68
2022/09/13 03:47:43;;;;;;;2.73;1.80;;;13.70;98.00;;;;;;5034020;28;20466;-68
2022/09/13 03:50:17;;;;;;;2.83;1.70;;;13.70;98.00;;;;;;5033735;28;20569;-68
2022/09/13 03:52:47;;;;;;;2.33;1.73;;;13.50;98.00;;;;;;5033766;28;20466;-68
2022/09/13 03:55:14;;;;;;;2.57;1.90;;;13.30;98.00;;;;;;5016342;28;20507;-69
2022/09/13 03:57:41;;;;;;;2.70;1.70;;;13.30;98.00;;;;;;5033843;28;20459;-69
2022/09/13 04:00:16;;;;;;;3.77;1.73;;;13.40;98.00;;;;;;5016224;28;20457;-69
2022/09/13 04:02:44;;;;;;;2.73;1.83;;;13.50;98.00;;;;;;5033703;28;20505;-68
2022/09/13 04:05:12;;;;;;;2.23;1.70;;;13.50;98.00;;;;;;5033259;28;20507;-68
2022/09/13 04:07:40;;;;;;;1.93;1.50;;;13.50;98.00;;;;;;5033537;28;20453;-70
2022/09/13 04:10:08;;;;;;;1.73;1.67;;;13.30;98.00;;;;;;5016238;28;20468;-69
2022/09/13 04:12:36;;;;;;;2.43;1.90;;;13.20;98.00;;;;;;5033350;28;20455;-68
2022/09/13 04:15:04;;;;;;;1.67;1.67;;;13.00;98.00;;;;;;5033561;28;20457;-68
2022/09/13 04:17:31;;;;;;;2.27;1.80;;;13.00;98.00;;;;;;5033461;28;20465;-69
2022/09/13 04:19:58;;;;;;;3.57;1.80;;;12.90;98.00;;;;;;5033633;28;20554;-68
2022/09/13 04:22:26;;;;;;;2.30;1.70;;;13.00;98.00;;;;;;5033197;28;20465;-68
2022/09/13 04:24:53;;;;;;;2.67;2.27;;;13.20;98.00;;;;;;5033293;28;20822;-68
2022/09/13 04:27:20;;;;;;;2.33;1.50;;;13.30;98.00;;;;;;5033452;28;20454;-69
2022/09/13 04:29:48;;;;;;;2.60;1.57;;;13.10;98.00;;;;;;5033494;28;20469;-68
2022/09/13 04:32:15;;;;;;;2.80;1.77;;;13.10;98.00;;;;;;5016042;28;20474;-69
2022/09/13 04:34:42;;;;;;;2.77;1.77;;;13.00;98.00;;;;;;5033117;28;20991;-68
2022/09/13 04:37:10;;;;;;;2.50;1.67;;;13.00;98.00;;;;;;5032890;28;20469;-69
2022/09/13 04:39:52;;;;;;;2.07;1.30;;;13.10;98.00;;;;;;5032825;28;20458;-68
2022/09/13 04:42:19;;;;;;;1.87;1.50;;;13.20;98.00;;;;;;5033149;28;21023;-68
2022/09/13 04:44:48;;;;;;;2.77;2.00;;;13.20;98.00;;;;;;5032702;28;20494;-68
2022/09/13 04:47:16;;;;;;;3.07;2.03;;;13.10;98.00;;;;;;5015717;28;20469;-68
2022/09/13 04:49:43;;;;;;;2.17;1.73;;;12.90;98.00;;;;;;5015091;28;20463;-68
2022/09/13 04:52:10;;;;;;;2.03;1.90;;;12.90;98.00;;;;;;5032203;28;20462;-68
2022/09/13 04:54:38;;;;;;;2.90;1.90;;;12.80;98.00;;;;;;5032681;28;20473;-68
2022/09/13 04:57:05;;;;;;;2.10;1.40;;;12.90;98.00;;;;;;5032694;28;20520;-70
2022/09/13 04:59:33;;;;;;;3.43;1.67;;;13.00;98.00;;;;;;5014942;28;20516;-69
2022/09/13 05:02:04;;;;;;;2.07;1.70;;;13.10;98.00;;;;;;5014970;28;20464;-68
2022/09/13 05:04:31;;;;;;;2.83;1.73;;;13.10;98.00;;;;;;5032407;28;20486;-69
2022/09/13 05:06:59;;;;;;;2.13;1.43;;;13.00;98.00;;;;;;5032379;28;20461;-69
2022/09/13 05:09:26;;;;;;;2.03;1.70;;;12.90;98.00;;;;;;5032546;28;20806;-68
2022/09/13 05:11:54;;;;;;;1.60;1.60;;;13.00;98.00;;;;;;5032410;28;20457;-69
2022/09/13 05:14:21;;;;;;;2.07;1.70;;;13.10;98.00;;;;;;5032531;28;20799;-69
2022/09/13 05:16:49;;;;;;;2.20;1.60;;;13.00;98.00;;;;;;5032477;28;20461;-70
2022/09/13 05:19:17;;;;;;;3.00;1.70;;;13.00;98.00;;;;;;5015165;28;20462;-69
2022/09/13 05:21:45;;;;;;;2.93;1.70;;;13.10;98.00;;;;;;5015070;28;20467;-69
2022/09/13 05:24:12;;;;;;;2.27;1.63;;;13.10;98.00;;;;;;5032415;28;20520;-68
2022/09/13 05:26:39;;;;;;;1.30;1.20;;;13.30;98.00;;;;;;5032367;28;20472;-68
2022/09/13 05:29:08;;;;;;;4.10;2.30;;;13.40;98.00;;;;;;5031960;28;20632;-68
2022/09/13 05:31:37;;;;;;;2.67;1.73;;;13.50;98.00;;;;;;5032429;28;20457;-69
2022/09/13 05:34:06;;;;;;;2.13;1.60;;;13.40;98.00;;;;;;5032494;28;20469;-68
2022/09/13 05:36:33;;;;;;;2.53;1.80;;;13.40;98.00;;;;;;5032051;28;20467;-69
2022/09/13 05:39:00;;;;;;;2.00;1.77;;;13.40;98.00;;;;;;5032186;28;20824;-68
2022/09/13 05:41:27;;;;;;;2.87;1.80;;;13.40;98.00;;;;;;5031178;28;20498;-68
2022/09/13 05:43:54;;;;;;;3.50;1.97;;;13.60;98.00;;;;;;5031246;28;20466;-69
2022/09/13 05:46:23;;;;;;;1.73;1.50;;;13.70;98.00;;;;;;5031200;28;20478;-68
2022/09/13 05:48:50;;;;;;;1.67;1.60;;;13.70;98.00;;;;;;5031176;28;20457;-68
2022/09/13 05:51:19;;;;;;;1.83;1.47;;;13.80;98.00;;;;;;5030932;28;20978;-68
2022/09/13 05:53:48;;;;;;;6.20;4.07;;;13.90;98.00;;;;;;5031429;28;20523;-72
2022/09/13 05:56:17;;;;;;;4.00;2.20;;;13.90;98.00;;;;;;5030983;28;20480;-73
2022/09/13 05:58:47;;;;;;;4.30;2.57;;;13.80;98.00;;;;;;5031443;28;20958;-72
2022/09/13 06:01:16;;;;;;;2.93;2.20;;;13.70;98.00;;;;;;5030986;28;20462;-73
2022/09/13 06:03:46;;;;;;;2.13;1.60;;;13.70;98.00;;;;;;5030905;28;20469;-73
2022/09/13 06:06:15;;;;;;;3.50;2.10;;;13.80;98.00;;;;;;5033885;28;20492;-74
2022/09/13 06:08:43;;;;;;;2.70;1.83;;;13.70;98.00;;;;;;5035336;28;20472;-72
2022/09/13 06:11:14;;;;;;;4.07;2.30;;;13.90;98.00;;;;;;5035233;28;20811;-74
2022/09/13 06:13:42;;;;;;;2.10;1.60;;;14.10;98.00;;;;;;5035382;28;20465;-73
2022/09/13 06:16:11;;;;;;;2.07;1.50;;;14.20;98.00;;;;;;5035017;28;20458;-74
2022/09/13 06:18:38;;;;;;;2.57;2.10;;;14.20;98.00;;;;;;5035113;28;20538;-74
2022/09/13 06:21:09;;;;;;;3.60;2.13;;;14.20;98.00;;;;;;5034844;28;20460;-73
2022/09/13 06:23:37;;;;;;;3.63;1.80;;;14.30;98.00;;;;;;5035240;28;20536;-74
2022/09/13 06:26:05;;;;;;;2.47;1.80;;;14.50;98.00;;;;;;5034963;28;20485;-73
2022/09/13 06:28:33;;;;;;;2.57;1.83;;;14.90;98.00;;;;;;5034998;28;20462;-72
2022/09/13 06:31:01;;;;;;;1.70;1.57;;;15.00;98.00;;;;;;5034878;28;20462;-73
2022/09/13 06:33:29;;;;;;;2.43;1.87;;;14.90;98.00;;;;;;5034806;28;20476;-72
2022/09/13 06:36:00;;;;;;;3.57;1.90;;;14.80;98.00;;;;;;5032958;28;20481;-72
2022/09/13 06:38:28;;;;;;;3.17;1.90;;;14.80;98.00;;;;;;5035009;28;20458;-72
2022/09/13 06:41:03;;;;;;;2.83;2.10;;;14.80;98.00;;;;;;5034576;28;20822;-72
2022/09/13 06:43:31;;;;;;;1.97;1.70;;;14.90;98.00;;;;;;5034704;28;20462;-73
2022/09/13 06:46:02;;;;;;;4.27;1.93;;;15.00;98.00;;;;;;5034127;28;20481;-71
2022/09/13 06:48:32;;;;;;;4.23;2.03;;;15.10;98.00;;;;;;5034549;28;20541;-73
2022/09/13 06:51:07;;;;;;;2.83;1.80;;;15.20;98.00;;;;;;5034400;28;20516;-73
2022/09/13 06:53:37;;;;;;;2.40;2.00;;;15.10;98.00;;;;;;5031436;28;20543;-72
2022/09/13 06:56:06;;;;;;;4.50;2.10;;;15.10;98.00;;;;;;5049508;28;20461;-72
2022/09/13 06:58:35;;;;;;;2.30;1.90;;;15.10;98.00;;;;;;5042139;28;20870;-73
2022/09/13 07:01:11;;;;;;;2.87;2.00;;;15.10;98.00;;;;;;5050398;28;20475;-73
2022/09/13 07:03:39;;;;;;;4.33;2.00;;;15.20;98.00;;;;;;5033027;28;20476;-73
2022/09/13 07:06:09;;;;;;;3.10;1.97;;;15.30;98.00;;;;;;5034378;28;20493;-73
2022/09/13 07:08:38;;;;;;;3.30;2.20;;;15.30;98.00;;;;;;5035324;28;20521;-71
2022/09/13 07:11:08;;;;;;;2.30;1.90;;;15.40;98.00;;;;;;5035478;28;20466;-68
2022/09/13 07:13:35;;;;;;;3.53;2.67;;;15.60;98.00;;;;;;5017099;28;20459;-70
2022/09/13 07:16:04;;;;;;;2.93;1.90;;;15.70;98.00;;;;;;5034449;28;20455;-72
2022/09/13 07:18:31;;;;;;;3.33;2.10;;;15.70;98.00;;;;;;5035060;28;20466;-73
2022/09/13 07:21:03;;;;;;;2.60;1.97;;;15.70;98.00;;;;;;5034756;28;20960;-73
2022/09/13 07:23:31;;;;;;;4.03;2.10;;;15.90;98.00;;;;;;5034391;28;20580;-71
2022/09/13 07:26:03;;;;;;;4.90;2.50;;;16.00;98.00;;;;;;5016732;28;20482;-75
2022/09/13 07:28:32;;;;;;;7.63;2.50;;;16.10;98.00;;;;;;5034121;28;20454;-73
2022/09/13 07:31:06;;;;;;;3.10;2.23;;;16.30;98.00;;;;;;5034514;28;20457;-71
2022/09/13 07:33:33;;;;;;;5.47;2.60;;;16.40;98.00;;;;;;5034813;28;20459;-73
2022/09/13 07:36:05;;;;;;;3.70;2.37;;;16.50;98.00;;;;;;5031577;28;20470;-71
2022/09/13 07:38:33;;;;;;;3.90;2.10;;;16.60;98.00;;;;;;5016422;28;20797;-71
2022/09/13 07:41:05;;;;;;;2.90;2.13;;;16.70;98.00;;;;;;5014379;28;20459;-72
2022/09/13 07:43:34;;;;;;;3.17;2.10;;;16.80;98.00;;;;;;5014545;28;20463;-73
2022/09/13 07:46:04;;;;;;;3.10;2.10;;;16.80;98.00;;;;;;5014372;28;20494;-72
2022/09/13 07:48:33;;;;;;;2.70;1.83;;;16.80;98.00;;;;;;5014115;28;20466;-74
2022/09/13 07:51:02;;;;;;;1.90;1.53;;;16.90;98.00;;;;;;5014544;28;20455;-72
2022/09/13 07:53:30;;;;;;;3.43;2.00;;;16.90;98.00;;;;;;5014246;28;20471;-73
2022/09/13 07:56:04;;;;;;;3.90;2.67;;;17.10;98.00;;;;;;5013933;28;20467;-73
2022/09/13 07:58:32;;;;;;;3.40;2.50;;;17.30;98.00;;;;;;5014382;28;20472;-74
2022/09/13 08:01:06;;;;;;;1.93;1.63;;;17.40;98.00;;;;;;5013869;28;20984;-74
2022/09/13 08:03:33;;;;;;;3.70;2.07;;;17.50;98.00;;;;;;5013139;28;20863;-72
2022/09/13 08:06:02;;;;;;;3.97;2.57;;;17.70;98.00;;;;;;5013189;28;20491;-73
2022/09/13 08:08:29;;;;;;;3.40;2.33;;;17.80;98.00;;;;;;4995715;28;20856;-72
2022/09/13 08:10:56;;;;;;;3.27;2.10;;;17.90;98.00;;;;;;5013307;28;20840;-72
2022/09/13 08:13:26;;;;;;;3.70;2.60;;;18.20;98.00;;;;;;5013263;28;20462;-72
2022/09/13 08:15:53;;;;;;;2.70;2.07;;;18.30;98.00;;;;;;5013620;28;20546;-73
2022/09/13 08:18:21;;;;;;;2.87;1.90;;;18.50;98.00;;;;;;5013205;28;20455;-72
2022/09/13 08:20:48;;;;;;;5.20;2.37;;;18.60;98.00;;;;;;5013157;28;20483;-74
2022/09/13 08:23:16;;;;;;;3.40;2.30;;;18.80;98.00;;;;;;5013201;28;20829;-72
2022/09/13 08:25:43;;;;;;;3.10;2.30;;;19.00;98.00;;;;;;5012924;28;20483;-73
2022/09/13 08:28:15;;;;;;;2.90;1.80;;;19.30;98.00;;;;;;5012166;28;20825;-72
2022/09/13 08:30:44;;;;;;;3.10;2.43;;;19.50;98.00;;;;;;5012849;28;20464;-74
2022/09/13 08:33:12;;;;;;;3.13;2.17;;;19.60;98.00;;;;;;4995248;28;20486;-72
2022/09/13 08:35:39;;;;;;;3.83;2.23;;;19.70;98.00;;;;;;5012871;28;20471;-71
2022/09/13 08:38:07;;;;;;;2.53;1.83;;;19.80;98.00;;;;;;5013055;28;20456;-63
2022/09/13 08:40:41;;;;;;;2.37;1.90;;;20.10;98.00;;;;;;5012786;28;20946;-62
2022/09/13 08:43:17;;;;;;;4.43;1.80;;;20.30;98.00;;;;;;5013116;28;20554;-63
2022/09/13 08:45:51;;;;;;;2.77;1.90;;;20.70;98.00;;;;;;5013192;28;20490;-63
2022/09/13 08:48:23;;;;;;;4.00;2.00;;;21.10;98.00;;;;;;5013140;28;20467;-72
2022/09/13 08:50:54;;;;;;;2.43;2.20;;;21.40;98.00;;;;;;5013441;28;20460;-73
2022/09/13 08:53:26;;;;;;;3.40;2.13;;;21.40;98.00;;;;;;5013099;28;21016;-73
2022/09/13 08:56:00;;;;;;;3.27;2.00;;;21.50;98.00;;;;;;4995281;28;20484;-72
2022/09/13 08:58:49;;;;;;;2.50;1.90;;;21.50;98.00;;;;;;5013283;28;20992;-72
2022/09/13 09:01:29;;;;;;;3.53;2.50;;;21.60;98.00;;;;;;5000171;28;20460;-73
2022/09/13 09:04:03;;;;;;;2.90;2.30;;;21.60;98.00;;;;;;5012887;28;20478;-73
2022/09/13 09:06:31;;;;;;;3.30;2.23;;;21.80;98.00;;;;;;5012859;28;20542;-72
2022/09/13 09:09:03;;;;;;;2.73;2.00;;;21.90;98.00;;;;;;5013220;28;20507;-74
2022/09/13 09:11:37;;;;;;;2.50;1.70;;;22.00;98.00;;;;;;5012928;28;21441;-72
2022/09/13 09:14:14;;;;;;;3.37;2.07;;;22.30;98.00;;;;;;5013004;28;20980;-73
2022/09/13 09:16:48;;;;;;;2.10;1.80;;;22.50;98.00;;;;;;5012859;28;20513;-72
2022/09/13 09:19:21;;;;;;;2.60;2.03;;;22.70;98.00;;;;;;5012865;28;20451;-72
2022/09/13 09:21:57;;;;;;;2.80;2.00;;;22.90;98.00;;;;;;5012585;28;20451;-71
2022/09/13 09:24:25;;;;;;;3.17;2.13;;;23.20;98.00;;;;;;5012830;28;20451;-71
2022/09/13 09:26:55;;;;;;;2.30;2.00;;;23.50;98.00;;;;;;5012597;28;20483;-72
2022/09/13 09:29:25;;;;;;;2.93;2.20;;;23.60;98.00;;;;;;5012704;28;20458;-72
2022/09/13 09:32:08;;;;;;;2.40;1.90;;;23.60;98.00;;;;;;5012588;28;20472;-73
2022/09/13 09:34:47;;;;;;;4.70;2.13;;;23.50;98.00;;;;;;5012667;28;20462;-73
2022/09/13 09:37:19;;;;;;;2.80;2.17;;;23.50;98.00;;;;;;5012590;28;20462;-71
2022/09/13 09:39:49;;;;;;;2.83;1.87;;;23.60;98.00;;;;;;5012152;28;20554;-70
2022/09/13 09:42:20;;;;;;;4.60;2.43;;;23.70;98.00;;;;;;5010838;28;20456;-70
2022/09/13 09:44:52;;;;;;;2.20;1.90;;;23.80;98.00;;;;;;5011894;28;20452;-70
2022/09/13 09:47:23;;;;;;;2.30;2.00;;;23.80;98.00;;;;;;5011607;28;20480;-71
2022/09/13 09:50:10;;;;;;;3.07;2.20;;;23.90;98.00;;;;;;5012216;28;20463;-70
2022/09/13 09:52:44;;;;;;;3.23;2.20;;;24.00;98.00;;;;;;5012088;28;20489;-70
2022/09/13 09:55:19;;;;;;;3.83;2.30;;;24.00;98.00;;;;;;5011906;28;20455;-70
2022/09/13 09:57:54;;;;;;;2.63;2.03;;;24.10;98.00;;;;;;5012438;28;21020;-70
2022/09/13 10:00:24;;;;;;;3.67;2.27;;;24.10;98.00;;;;;;5012804;28;20459;-70
2022/09/13 10:02:57;;;;;;;2.60;2.10;;;24.20;98.00;;;;;;5012497;28;20459;-70
2022/09/13 10:05:25;;;;;;;2.40;2.00;;;24.10;98.00;;;;;;5011849;28;20476;-71
2022/09/13 10:08:01;;;;;;;2.20;2.00;;;24.20;98.00;;;;;;5012000;28;20462;-71
2022/09/13 10:10:37;;;;;;;4.13;2.27;;;24.20;98.00;;;;;;5033727;28;20462;-69
2022/09/13 10:13:07;;;;;;;2.60;2.20;;;24.20;98.00;;;;;;5047258;28;20457;-71
2022/09/13 10:15:34;;;;;;;2.33;2.00;;;24.20;98.00;;;;;;5042260;28;20463;-71
2022/09/13 10:18:07;;;;;;;3.37;2.30;;;24.20;98.00;;;;;;5043683;28;20516;-71
2022/09/13 10:20:37;;;;;;;3.30;2.20;;;24.50;98.00;;;;;;5038041;28;20540;-69
2022/09/13 10:23:20;;;;;;;2.40;2.03;;;24.70;98.00;;;;;;5033700;28;20509;-69
2022/09/13 10:26:07;;;;;;;2.47;2.17;;;24.90;98.00;;;;;;5029450;28;20482;-70
2022/09/13 10:28:41;;;;;;;2.50;1.90;;;25.10;98.00;;;;;;5031862;28;20473;-71
2022/09/13 10:31:10;;;;;;;2.60;2.10;;;25.10;98.00;;;;;;5031623;28;21040;-70
2022/09/13 10:33:41;;;;;;;2.60;2.20;;;25.10;98.00;;;;;;5031829;28;20459;-70
2022/09/13 10:36:14;;;;;;;3.50;1.90;;;25.30;97.40;;;;;;5031394;28;20462;-70
2022/09/13 10:38:48;;;;;;;2.57;2.13;;;25.30;97.20;;;;;;5031367;28;20807;-70
2022/09/13 10:41:23;;;;;;;2.03;1.70;;;25.50;97.00;;;;;;5031102;28;20462;-70
2022/09/13 10:43:57;;;;;;;3.40;2.20;;;25.70;96.60;;;;;;5031448;28;20465;-69
2022/09/13 10:46:25;;;;;;;2.80;2.10;;;26.00;96.90;;;;;;5030912;28;20517;-69
2022/09/13 10:48:56;;;;;;;2.90;2.10;;;26.30;93.60;;;;;;5013883;28;20455;-70
2022/09/13 10:51:36;;;;;;;2.47;1.93;;;26.60;93.00;;;;;;5032381;28;20504;-70
2022/09/13 10:54:18;;;;;;;2.60;2.03;;;26.90;93.20;;;;;;5035044;28;20601;-70
2022/09/13 10:56:46;;;;;;;2.27;2.00;;;27.30;93.10;;;;;;5034918;28;20485;-69
2022/09/13 10:59:20;;;;;;;2.83;2.10;;;27.70;90.70;;;;;;5034843;28;20443;-69
2022/09/13 11:01:59;;;;;;;2.90;2.20;;;27.90;89.70;;;;;;5034603;28;20520;-68
2022/09/13 11:04:45;;;;;;;2.70;2.13;;;28.20;88.60;;;;;;5034794;28;20473;-67
2022/09/13 11:07:34;;;;;;;2.27;1.70;;;28.60;87.70;;;;;;5034961;28;20494;-67
2022/09/13 11:10:04;;;;;;;2.40;2.13;;;28.70;82.40;;;;;;5034962;28;20461;-68
2022/09/13 11:12:40;;;;;;;2.00;1.90;;;28.90;84.30;;;;;;5034574;28;20462;-67
2022/09/13 11:15:21;;;;;;;2.90;1.93;;;29.10;84.00;;;;;;5034777;28;20469;-60
2022/09/13 11:18:24;;;;;;;2.90;1.93;;;29.30;83.50;;;;;;5034953;28;20458;-60
2022/09/13 11:21:04;;;;;;;2.37;1.70;;;29.50;80.70;;;;;;5034597;28;20949;-61
2022/09/13 11:23:43;;;;;;;2.30;1.90;;;29.70;81.10;;;;;;5034857;28;20462;-61
2022/09/13 11:26:31;;;;;;;1.90;1.70;;;29.70;82.20;;;;;;5034853;28;20482;-62
2022/09/13 11:29:09;;;;;;;1.97;1.80;;;29.90;82.50;;;;;;5034512;28;20529;-61
2022/09/13 11:31:43;;;;;;;1.70;1.70;;;30.40;79.20;;;;;;5034624;28;20454;-62
2022/09/13 11:34:37;;;;;;;3.47;2.03;;;30.70;77.80;;;;;;5034540;28;20470;-61
2022/09/13 11:37:36;;;;;;;2.33;1.80;;;30.50;77.40;;;;;;5034565;28;20968;-60
2022/09/13 11:40:20;;;;;;;2.40;1.90;;;30.40;78.30;;;;;;5033660;28;20991;-57
2022/09/13 11:43:01;;;;;;;3.70;2.10;;;30.10;79.70;;;;;;5034080;28;20462;-68
2022/09/13 11:45:30;;;;;;;2.70;2.07;;;30.20;77.40;;;;;;5033937;28;20795;-65
2022/09/13 11:48:21;;;;;;;2.43;1.87;;;29.90;79.40;;;;;;5033878;28;20541;-67
2022/09/13 11:50:58;;;;;;;1.60;1.60;;;30.10;79.50;;;;;;5018696;28;20467;-64
2022/09/13 11:53:55;;;;;;;2.23;1.83;;;30.30;79.30;;;;;;5033862;28;20462;-68
2022/09/13 11:56:28;;;;;;;1.90;1.70;;;30.30;78.40;;;;;;5032360;28;20984;-62
2022/09/13 11:59:10;;;;;;;2.70;1.90;;;29.90;76.50;;;;;;5033828;28;20502;-59
2022/09/13 12:01:42;;;;;;;1.80;1.70;;;29.80;78.00;;;;;;5033850;28;20466;-63
2022/09/13 12:04:13;;;;;;;2.20;1.90;;;29.80;79.60;;;;;;5033679;28;20566;-61
2022/09/13 12:06:48;;;;;;;4.33;2.10;;;29.90;79.90;;;;;;5028714;28;20498;-61
2022/09/13 12:09:21;;;;;;;1.93;1.87;;;29.80;79.90;;;;;;5030844;28;20454;-62
2022/09/13 12:11:53;;;;;;;2.60;2.00;;;29.90;78.80;;;;;;5033612;28;20454;-61
2022/09/13 12:14:25;;;;;;;2.30;1.90;;;30.10;78.50;;;;;;5022339;28;20861;-62
2022/09/13 12:16:58;;;;;;;2.40;2.00;;;30.50;77.40;;;;;;5030010;28;20463;-62
2022/09/13 12:19:29;;;;;;;2.23;1.80;;;30.90;77.40;;;;;;5023141;28;20467;-62
2022/09/13 12:21:59;;;;;;;2.03;1.80;;;31.20;76.50;;;;;;5021358;28;20463;-62
2022/09/13 12:24:35;;;;;;;1.80;1.70;;;31.30;74.60;;;;;;4996603;28;20451;-61
2022/09/13 12:27:09;;;;;;;2.13;1.90;;;31.30;75.30;;;;;;5013544;28;20522;-62
2022/09/13 12:29:40;;;;;;;2.83;2.00;;;31.40;73.20;;;;;;5013579;28;20455;-59
2022/09/13 12:32:10;;;;;;;2.43;2.00;;;31.50;74.10;;;;;;5013864;28;20448;-61
2022/09/13 12:34:43;;;;;;;1.90;1.70;;;31.60;71.80;;;;;;5013652;28;20452;-65
2022/09/13 12:37:45;;;;;;;2.90;2.03;;;31.50;71.80;;;;;;5024517;28;20503;-61
2022/09/13 12:40:37;;;;;;;2.00;1.67;;;31.50;72.40;;;;;;5001514;28;20450;-61
2022/09/13 12:43:20;;;;;;;2.03;1.80;;;31.50;72.90;;;;;;5032952;28;20458;-60
2022/09/13 12:46:09;;;;;;;1.63;1.50;;;31.20;70.40;;;;;;5032771;28;20458;-62
2022/09/13 12:49:09;;;;;;;1.57;1.50;;;30.80;71.40;;;;;;5030744;28;20475;-64
2022/09/13 12:52:00;;;;;;;2.43;1.53;;;30.50;71.70;;;;;;5032308;28;20466;-60
2022/09/13 12:54:52;;;;;;;2.20;1.80;;;30.20;71.70;;;;;;5032778;28;21243;-60
2022/09/13 12:57:33;;;;;;;1.90;1.60;;;30.20;72.30;;;;;;5032378;28;20534;-63
2022/09/13 13:00:11;;;;;;;3.30;1.67;;;30.10;71.70;;;;;;5032660;28;20470;-62
2022/09/13 13:02:42;;;;;;;2.10;1.70;;;30.00;73.20;;;;;;5032647;28;20454;-61
2022/09/13 13:05:24;;;;;;;2.00;1.70;;;30.00;72.60;;;;;;5032311;28;20528;-70
2022/09/13 13:07:54;;;;;;;2.40;1.97;;;30.00;73.70;;;;;;5032437;28;20577;-70
2022/09/13 13:10:29;;;;;;;2.80;1.70;;;30.20;75.00;;;;;;5032342;28;20471;-69
2022/09/13 13:13:10;;;;;;;1.80;1.60;;;30.50;70.10;;;;;;5032704;28;20461;-68
2022/09/13 13:16:02;;;;;;;2.53;1.90;;;31.00;70.60;;;;;;5032312;28;20462;-69
2022/09/13 13:18:31;;;;;;;1.77;1.60;;;31.60;67.40;;;;;;5032572;28;20459;-68